sensor_id;sensor_type;location;lat;lon;timestamp;P1;durP1;ratioP1;P2;durP2;ratioP2
27383;SDS011;14851;51.166;4.760;2024-02-26T00:01:55;2.80;;;1.50;;
27383;SDS011;14851;51.166;4.760;2024-02-26T00:04:22;2.85;;;1.23;;
27383;SDS011;14851;51.166;4.760;2024-02-26T00:06:51;3.55;;;1.42;;
27383;SDS011;14851;51.166;4.760;2024-02-26T00:09:19;3.47;;;1.23;;
27383;SDS011;14851;51.166;4.760;2024-02-26T00:11:45;3.53;;;1.20;;
27383;SDS011;14851;51.166;4.760;2024-02-26T00:14:11;3.08;;;1.77;;
27383;SDS011;14851;51.166;4.760;2024-02-26T00:16:39;2.55;;;1.40;;
27383;SDS011;14851;51.166;4.760;2024-02-26T00:19:06;4.63;;;1.83;;
27383;SDS011;14851;51.166;4.760;2024-02-26T00:21:32;3.55;;;1.42;;
27383;SDS011;14851;51.166;4.760;2024-02-26T00:23:58;3.13;;;1.67;;
27383;SDS011;14851;51.166;4.760;2024-02-26T00:26:24;4.07;;;1.17;;
27383;SDS011;14851;51.166;4.760;2024-02-26T00:28:52;3.53;;;1.20;;
27383;SDS011;14851;51.166;4.760;2024-02-26T00:31:18;2.53;;;1.15;;
27383;SDS011;14851;51.166;4.760;2024-02-26T00:33:44;1.77;;;1.15;;
27383;SDS011;14851;51.166;4.760;2024-02-26T00:36:10;1.95;;;0.93;;
27383;SDS011;14851;51.166;4.760;2024-02-26T00:38:36;2.28;;;1.23;;
27383;SDS011;14851;51.166;4.760;2024-02-26T00:41:04;3.05;;;1.02;;
27383;SDS011;14851;51.166;4.760;2024-02-26T00:43:30;5.22;;;1.40;;
27383;SDS011;14851;51.166;4.760;2024-02-26T00:45:58;1.85;;;1.05;;
27383;SDS011;14851;51.166;4.760;2024-02-26T00:48:27;2.45;;;1.10;;
27383;SDS011;14851;51.166;4.760;2024-02-26T00:50:55;1.90;;;0.95;;
27383;SDS011;14851;51.166;4.760;2024-02-26T00:53:21;1.67;;;1.10;;
27383;SDS011;14851;51.166;4.760;2024-02-26T00:55:47;2.03;;;1.20;;
27383;SDS011;14851;51.166;4.760;2024-02-26T00:58:13;2.60;;;1.25;;
27383;SDS011;14851;51.166;4.760;2024-02-26T01:00:39;1.55;;;1.00;;
27383;SDS011;14851;51.166;4.760;2024-02-26T01:03:05;1.73;;;1.08;;
27383;SDS011;14851;51.166;4.760;2024-02-26T01:05:31;2.42;;;1.20;;
27383;SDS011;14851;51.166;4.760;2024-02-26T01:07:56;3.42;;;1.42;;
27383;SDS011;14851;51.166;4.760;2024-02-26T01:10:24;3.75;;;1.67;;
27383;SDS011;14851;51.166;4.760;2024-02-26T01:12:49;1.88;;;1.17;;
27383;SDS011;14851;51.166;4.760;2024-02-26T01:15:15;3.88;;;1.60;;
27383;SDS011;14851;51.166;4.760;2024-02-26T01:17:41;2.20;;;1.23;;
27383;SDS011;14851;51.166;4.760;2024-02-26T01:20:07;3.17;;;1.40;;
27383;SDS011;14851;51.166;4.760;2024-02-26T01:22:34;2.90;;;1.60;;
27383;SDS011;14851;51.166;4.760;2024-02-26T01:25:06;2.67;;;1.70;;
27383;SDS011;14851;51.166;4.760;2024-02-26T01:27:35;3.22;;;1.60;;
27383;SDS011;14851;51.166;4.760;2024-02-26T01:30:04;4.45;;;1.92;;
27383;SDS011;14851;51.166;4.760;2024-02-26T01:32:31;3.88;;;1.95;;
27383;SDS011;14851;51.166;4.760;2024-02-26T01:34:57;3.00;;;1.98;;
27383;SDS011;14851;51.166;4.760;2024-02-26T01:37:23;2.80;;;1.80;;
27383;SDS011;14851;51.166;4.760;2024-02-26T01:39:49;3.42;;;2.10;;
27383;SDS011;14851;51.166;4.760;2024-02-26T01:42:15;3.05;;;1.77;;
27383;SDS011;14851;51.166;4.760;2024-02-26T01:44:41;3.58;;;2.25;;
27383;SDS011;14851;51.166;4.760;2024-02-26T01:47:09;3.13;;;1.60;;
27383;SDS011;14851;51.166;4.760;2024-02-26T01:49:37;2.58;;;1.80;;
27383;SDS011;14851;51.166;4.760;2024-02-26T01:52:06;3.70;;;1.98;;
27383;SDS011;14851;51.166;4.760;2024-02-26T01:54:39;3.35;;;1.88;;
27383;SDS011;14851;51.166;4.760;2024-02-26T01:57:07;3.40;;;1.83;;
27383;SDS011;14851;51.166;4.760;2024-02-26T01:59:34;7.95;;;1.88;;
27383;SDS011;14851;51.166;4.760;2024-02-26T02:02:01;3.90;;;1.75;;
27383;SDS011;14851;51.166;4.760;2024-02-26T02:04:31;2.38;;;1.83;;
27383;SDS011;14851;51.166;4.760;2024-02-26T02:06:57;3.60;;;1.80;;
27383;SDS011;14851;51.166;4.760;2024-02-26T02:09:26;2.25;;;1.65;;
27383;SDS011;14851;51.166;4.760;2024-02-26T02:11:55;2.88;;;1.83;;
27383;SDS011;14851;51.166;4.760;2024-02-26T02:14:24;2.28;;;1.35;;
27383;SDS011;14851;51.166;4.760;2024-02-26T02:16:50;2.53;;;1.80;;
27383;SDS011;14851;51.166;4.760;2024-02-26T02:19:16;2.75;;;1.52;;
27383;SDS011;14851;51.166;4.760;2024-02-26T02:21:42;3.88;;;1.65;;
27383;SDS011;14851;51.166;4.760;2024-02-26T02:24:10;4.40;;;2.10;;
27383;SDS011;14851;51.166;4.760;2024-02-26T02:26:36;3.17;;;1.85;;
27383;SDS011;14851;51.166;4.760;2024-02-26T02:29:03;4.05;;;2.45;;
27383;SDS011;14851;51.166;4.760;2024-02-26T02:31:31;4.53;;;2.13;;
27383;SDS011;14851;51.166;4.760;2024-02-26T02:33:57;4.38;;;2.28;;
27383;SDS011;14851;51.166;4.760;2024-02-26T02:36:24;3.60;;;2.08;;
27383;SDS011;14851;51.166;4.760;2024-02-26T02:38:50;3.45;;;2.03;;
27383;SDS011;14851;51.166;4.760;2024-02-26T02:41:16;3.00;;;2.05;;
27383;SDS011;14851;51.166;4.760;2024-02-26T02:43:42;3.75;;;1.77;;
27383;SDS011;14851;51.166;4.760;2024-02-26T02:46:08;3.78;;;1.90;;
27383;SDS011;14851;51.166;4.760;2024-02-26T02:48:36;3.67;;;1.90;;
27383;SDS011;14851;51.166;4.760;2024-02-26T02:51:02;3.08;;;1.92;;
27383;SDS011;14851;51.166;4.760;2024-02-26T02:53:28;3.13;;;2.22;;
27383;SDS011;14851;51.166;4.760;2024-02-26T02:55:56;5.35;;;2.45;;
27383;SDS011;14851;51.166;4.760;2024-02-26T02:58:22;4.15;;;2.30;;
27383;SDS011;14851;51.166;4.760;2024-02-26T03:00:48;3.88;;;2.40;;
27383;SDS011;14851;51.166;4.760;2024-02-26T03:03:15;4.80;;;2.70;;
27383;SDS011;14851;51.166;4.760;2024-02-26T03:05:41;3.97;;;2.75;;
27383;SDS011;14851;51.166;4.760;2024-02-26T03:08:07;4.43;;;2.78;;
27383;SDS011;14851;51.166;4.760;2024-02-26T03:10:36;4.15;;;2.97;;
27383;SDS011;14851;51.166;4.760;2024-02-26T03:13:02;4.22;;;2.70;;
27383;SDS011;14851;51.166;4.760;2024-02-26T03:15:28;3.72;;;2.50;;
27383;SDS011;14851;51.166;4.760;2024-02-26T03:17:54;3.58;;;2.30;;
27383;SDS011;14851;51.166;4.760;2024-02-26T03:20:20;5.88;;;3.20;;
27383;SDS011;14851;51.166;4.760;2024-02-26T03:22:45;4.47;;;2.92;;
27383;SDS011;14851;51.166;4.760;2024-02-26T03:25:12;4.15;;;3.00;;
27383;SDS011;14851;51.166;4.760;2024-02-26T03:27:38;5.13;;;3.40;;
27383;SDS011;14851;51.166;4.760;2024-02-26T03:30:06;5.72;;;3.30;;
27383;SDS011;14851;51.166;4.760;2024-02-26T03:32:34;4.35;;;3.80;;
27383;SDS011;14851;51.166;4.760;2024-02-26T03:35:00;5.90;;;3.42;;
27383;SDS011;14851;51.166;4.760;2024-02-26T03:37:27;5.45;;;4.05;;
27383;SDS011;14851;51.166;4.760;2024-02-26T03:39:55;9.30;;;4.93;;
27383;SDS011;14851;51.166;4.760;2024-02-26T03:42:23;6.88;;;4.45;;
27383;SDS011;14851;51.166;4.760;2024-02-26T03:44:50;6.38;;;4.35;;
27383;SDS011;14851;51.166;4.760;2024-02-26T03:47:17;6.32;;;4.70;;
27383;SDS011;14851;51.166;4.760;2024-02-26T03:49:45;5.82;;;4.18;;
27383;SDS011;14851;51.166;4.760;2024-02-26T03:52:11;6.72;;;4.65;;
27383;SDS011;14851;51.166;4.760;2024-02-26T03:54:37;5.15;;;4.30;;
27383;SDS011;14851;51.166;4.760;2024-02-26T03:57:02;6.30;;;3.92;;
27383;SDS011;14851;51.166;4.760;2024-02-26T03:59:32;5.50;;;4.15;;
27383;SDS011;14851;51.166;4.760;2024-02-26T04:02:00;7.70;;;4.18;;
27383;SDS011;14851;51.166;4.760;2024-02-26T04:04:27;4.95;;;3.55;;
27383;SDS011;14851;51.166;4.760;2024-02-26T04:06:55;7.80;;;4.20;;
27383;SDS011;14851;51.166;4.760;2024-02-26T04:09:23;6.30;;;3.70;;
27383;SDS011;14851;51.166;4.760;2024-02-26T04:11:49;4.80;;;4.13;;
27383;SDS011;14851;51.166;4.760;2024-02-26T04:14:15;5.68;;;4.20;;
27383;SDS011;14851;51.166;4.760;2024-02-26T04:16:41;5.15;;;3.92;;
27383;SDS011;14851;51.166;4.760;2024-02-26T04:19:06;7.60;;;4.07;;
27383;SDS011;14851;51.166;4.760;2024-02-26T04:21:33;6.50;;;4.28;;
27383;SDS011;14851;51.166;4.760;2024-02-26T04:23:59;4.75;;;3.83;;
27383;SDS011;14851;51.166;4.760;2024-02-26T04:26:27;7.38;;;4.03;;
27383;SDS011;14851;51.166;4.760;2024-02-26T04:28:55;5.72;;;3.78;;
27383;SDS011;14851;51.166;4.760;2024-02-26T04:31:21;4.50;;;3.60;;
27383;SDS011;14851;51.166;4.760;2024-02-26T04:33:48;5.07;;;3.70;;
27383;SDS011;14851;51.166;4.760;2024-02-26T04:36:15;6.00;;;3.80;;
27383;SDS011;14851;51.166;4.760;2024-02-26T04:38:44;4.45;;;3.58;;
27383;SDS011;14851;51.166;4.760;2024-02-26T04:41:10;4.75;;;3.75;;
27383;SDS011;14851;51.166;4.760;2024-02-26T04:43:37;4.68;;;4.10;;
27383;SDS011;14851;51.166;4.760;2024-02-26T04:46:07;7.20;;;4.53;;
27383;SDS011;14851;51.166;4.760;2024-02-26T04:48:34;5.75;;;4.55;;
27383;SDS011;14851;51.166;4.760;2024-02-26T04:51:01;4.68;;;3.75;;
27383;SDS011;14851;51.166;4.760;2024-02-26T04:53:29;4.43;;;4.03;;
27383;SDS011;14851;51.166;4.760;2024-02-26T04:55:55;7.78;;;4.30;;
27383;SDS011;14851;51.166;4.760;2024-02-26T04:58:21;5.78;;;4.10;;
27383;SDS011;14851;51.166;4.760;2024-02-26T05:00:47;4.55;;;3.92;;
27383;SDS011;14851;51.166;4.760;2024-02-26T05:03:13;5.18;;;3.80;;
27383;SDS011;14851;51.166;4.760;2024-02-26T05:05:41;5.07;;;4.13;;
27383;SDS011;14851;51.166;4.760;2024-02-26T05:08:09;5.40;;;3.75;;
27383;SDS011;14851;51.166;4.760;2024-02-26T05:10:38;4.85;;;4.07;;
27383;SDS011;14851;51.166;4.760;2024-02-26T05:13:09;4.07;;;3.67;;
27383;SDS011;14851;51.166;4.760;2024-02-26T05:15:37;4.22;;;3.83;;
27383;SDS011;14851;51.166;4.760;2024-02-26T05:18:03;6.55;;;3.92;;
27383;SDS011;14851;51.166;4.760;2024-02-26T05:20:29;4.65;;;3.63;;
27383;SDS011;14851;51.166;4.760;2024-02-26T05:22:56;4.88;;;3.53;;
27383;SDS011;14851;51.166;4.760;2024-02-26T05:25:24;6.30;;;3.90;;
27383;SDS011;14851;51.166;4.760;2024-02-26T05:27:50;3.70;;;3.20;;
27383;SDS011;14851;51.166;4.760;2024-02-26T05:30:16;4.43;;;3.90;;
27383;SDS011;14851;51.166;4.760;2024-02-26T05:32:42;4.30;;;3.63;;
27383;SDS011;14851;51.166;4.760;2024-02-26T05:35:10;5.50;;;3.55;;
27383;SDS011;14851;51.166;4.760;2024-02-26T05:37:36;6.15;;;3.80;;
27383;SDS011;14851;51.166;4.760;2024-02-26T05:40:01;4.63;;;4.00;;
27383;SDS011;14851;51.166;4.760;2024-02-26T05:42:29;4.85;;;4.00;;
27383;SDS011;14851;51.166;4.760;2024-02-26T05:44:55;4.15;;;3.75;;
27383;SDS011;14851;51.166;4.760;2024-02-26T05:47:24;6.20;;;4.10;;
27383;SDS011;14851;51.166;4.760;2024-02-26T05:49:50;5.28;;;4.05;;
27383;SDS011;14851;51.166;4.760;2024-02-26T05:52:16;5.28;;;3.78;;
27383;SDS011;14851;51.166;4.760;2024-02-26T05:54:41;4.47;;;4.05;;
27383;SDS011;14851;51.166;4.760;2024-02-26T05:57:10;4.00;;;3.60;;
27383;SDS011;14851;51.166;4.760;2024-02-26T05:59:36;5.35;;;4.00;;
27383;SDS011;14851;51.166;4.760;2024-02-26T06:02:02;4.03;;;3.63;;
27383;SDS011;14851;51.166;4.760;2024-02-26T06:04:30;4.60;;;3.72;;
27383;SDS011;14851;51.166;4.760;2024-02-26T06:06:59;5.68;;;4.20;;
27383;SDS011;14851;51.166;4.760;2024-02-26T06:09:24;4.35;;;3.95;;
27383;SDS011;14851;51.166;4.760;2024-02-26T06:11:50;5.57;;;3.88;;
27383;SDS011;14851;51.166;4.760;2024-02-26T06:14:20;4.18;;;3.78;;
27383;SDS011;14851;51.166;4.760;2024-02-26T06:16:46;4.07;;;3.67;;
27383;SDS011;14851;51.166;4.760;2024-02-26T06:19:12;4.30;;;3.90;;
27383;SDS011;14851;51.166;4.760;2024-02-26T06:21:40;5.25;;;3.60;;
27383;SDS011;14851;51.166;4.760;2024-02-26T06:24:08;6.53;;;4.55;;
27383;SDS011;14851;51.166;4.760;2024-02-26T06:26:34;4.13;;;3.72;;
27383;SDS011;14851;51.166;4.760;2024-02-26T06:28:59;6.65;;;4.35;;
27383;SDS011;14851;51.166;4.760;2024-02-26T06:31:28;4.65;;;3.70;;
27383;SDS011;14851;51.166;4.760;2024-02-26T06:33:57;4.67;;;4.10;;
27383;SDS011;14851;51.166;4.760;2024-02-26T06:36:23;5.70;;;3.90;;
27383;SDS011;14851;51.166;4.760;2024-02-26T06:38:48;4.28;;;3.88;;
27383;SDS011;14851;51.166;4.760;2024-02-26T06:41:14;3.67;;;3.30;;
27383;SDS011;14851;51.166;4.760;2024-02-26T06:43:40;4.00;;;3.60;;
27383;SDS011;14851;51.166;4.760;2024-02-26T06:46:09;5.07;;;3.30;;
27383;SDS011;14851;51.166;4.760;2024-02-26T06:51:02;4.28;;;3.47;;
27383;SDS011;14851;51.166;4.760;2024-02-26T06:53:29;4.18;;;3.67;;
27383;SDS011;14851;51.166;4.760;2024-02-26T06:55:57;3.78;;;3.42;;
27383;SDS011;14851;51.166;4.760;2024-02-26T06:58:25;3.97;;;3.30;;
27383;SDS011;14851;51.166;4.760;2024-02-26T07:00:50;3.78;;;3.10;;
27383;SDS011;14851;51.166;4.760;2024-02-26T07:03:16;4.03;;;3.38;;
27383;SDS011;14851;51.166;4.760;2024-02-26T07:05:50;3.45;;;3.15;;
27383;SDS011;14851;51.166;4.760;2024-02-26T07:08:17;3.75;;;3.22;;
27383;SDS011;14851;51.166;4.760;2024-02-26T07:10:45;4.97;;;3.72;;
27383;SDS011;14851;51.166;4.760;2024-02-26T07:13:11;3.78;;;3.10;;
27383;SDS011;14851;51.166;4.760;2024-02-26T07:15:42;3.55;;;3.13;;
27383;SDS011;14851;51.166;4.760;2024-02-26T07:18:12;3.47;;;3.17;;
27383;SDS011;14851;51.166;4.760;2024-02-26T07:20:40;4.50;;;2.72;;
27383;SDS011;14851;51.166;4.760;2024-02-26T07:23:06;5.82;;;3.10;;
27383;SDS011;14851;51.166;4.760;2024-02-26T07:25:32;5.53;;;3.25;;
27383;SDS011;14851;51.166;4.760;2024-02-26T07:27:58;4.35;;;3.83;;
27383;SDS011;14851;51.166;4.760;2024-02-26T07:30:23;4.53;;;3.53;;
27383;SDS011;14851;51.166;4.760;2024-02-26T07:32:50;5.75;;;4.10;;
27383;SDS011;14851;51.166;4.760;2024-02-26T07:35:16;4.82;;;4.15;;
27383;SDS011;14851;51.166;4.760;2024-02-26T07:37:42;4.03;;;3.58;;
27383;SDS011;14851;51.166;4.760;2024-02-26T07:40:13;4.00;;;3.60;;
27383;SDS011;14851;51.166;4.760;2024-02-26T07:42:40;4.25;;;3.40;;
27383;SDS011;14851;51.166;4.760;2024-02-26T07:45:06;3.92;;;3.53;;
27383;SDS011;14851;51.166;4.760;2024-02-26T07:47:32;4.22;;;3.72;;
27383;SDS011;14851;51.166;4.760;2024-02-26T07:49:59;5.50;;;3.97;;
27383;SDS011;14851;51.166;4.760;2024-02-26T07:52:26;4.78;;;3.50;;
27383;SDS011;14851;51.166;4.760;2024-02-26T07:54:52;4.70;;;3.53;;
27383;SDS011;14851;51.166;4.760;2024-02-26T07:57:20;4.78;;;3.75;;
27383;SDS011;14851;51.166;4.760;2024-02-26T07:59:46;7.88;;;3.60;;
27383;SDS011;14851;51.166;4.760;2024-02-26T08:02:15;4.57;;;3.60;;
27383;SDS011;14851;51.166;4.760;2024-02-26T08:04:41;4.10;;;3.70;;
27383;SDS011;14851;51.166;4.760;2024-02-26T08:07:07;4.63;;;3.75;;
27383;SDS011;14851;51.166;4.760;2024-02-26T08:09:32;5.07;;;3.92;;
27383;SDS011;14851;51.166;4.760;2024-02-26T08:11:58;5.25;;;4.57;;
27383;SDS011;14851;51.166;4.760;2024-02-26T08:14:24;4.43;;;4.03;;
27383;SDS011;14851;51.166;4.760;2024-02-26T08:16:50;4.82;;;3.97;;
27383;SDS011;14851;51.166;4.760;2024-02-26T08:19:16;4.75;;;4.15;;
27383;SDS011;14851;51.166;4.760;2024-02-26T08:21:43;5.00;;;4.50;;
27383;SDS011;14851;51.166;4.760;2024-02-26T08:24:08;3.88;;;3.47;;
27383;SDS011;14851;51.166;4.760;2024-02-26T08:26:35;6.60;;;4.95;;
27383;SDS011;14851;51.166;4.760;2024-02-26T08:29:00;5.32;;;4.82;;
27383;SDS011;14851;51.166;4.760;2024-02-26T08:31:26;5.30;;;4.80;;
27383;SDS011;14851;51.166;4.760;2024-02-26T08:33:55;8.43;;;4.78;;
27383;SDS011;14851;51.166;4.760;2024-02-26T08:36:21;5.70;;;4.95;;
27383;SDS011;14851;51.166;4.760;2024-02-26T08:38:47;5.72;;;4.93;;
27383;SDS011;14851;51.166;4.760;2024-02-26T08:41:12;5.93;;;5.13;;
27383;SDS011;14851;51.166;4.760;2024-02-26T08:43:38;5.43;;;4.90;;
27383;SDS011;14851;51.166;4.760;2024-02-26T08:46:09;5.68;;;4.47;;
27383;SDS011;14851;51.166;4.760;2024-02-26T08:48:40;5.97;;;4.75;;
27383;SDS011;14851;51.166;4.760;2024-02-26T08:51:06;6.65;;;5.78;;
27383;SDS011;14851;51.166;4.760;2024-02-26T08:53:33;5.85;;;5.28;;
27383;SDS011;14851;51.166;4.760;2024-02-26T08:55:59;5.97;;;5.38;;
27383;SDS011;14851;51.166;4.760;2024-02-26T08:58:26;6.07;;;5.47;;
27383;SDS011;14851;51.166;4.760;2024-02-26T09:00:55;5.47;;;4.97;;
27383;SDS011;14851;51.166;4.760;2024-02-26T09:03:23;5.43;;;4.93;;
27383;SDS011;14851;51.166;4.760;2024-02-26T09:05:49;5.95;;;5.35;;
27383;SDS011;14851;51.166;4.760;2024-02-26T09:08:15;6.88;;;5.32;;
27383;SDS011;14851;51.166;4.760;2024-02-26T09:13:11;5.18;;;4.68;;
27383;SDS011;14851;51.166;4.760;2024-02-26T09:15:39;6.43;;;5.38;;
27383;SDS011;14851;51.166;4.760;2024-02-26T09:18:06;5.68;;;5.05;;
27383;SDS011;14851;51.166;4.760;2024-02-26T09:20:34;6.68;;;4.95;;
27383;SDS011;14851;51.166;4.760;2024-02-26T09:23:00;5.10;;;4.60;;
27383;SDS011;14851;51.166;4.760;2024-02-26T09:25:25;5.13;;;4.63;;
27383;SDS011;14851;51.166;4.760;2024-02-26T09:27:51;4.93;;;4.43;;
27383;SDS011;14851;51.166;4.760;2024-02-26T09:30:17;5.13;;;4.63;;
27383;SDS011;14851;51.166;4.760;2024-02-26T09:32:45;7.00;;;5.07;;
27383;SDS011;14851;51.166;4.760;2024-02-26T09:35:13;5.20;;;4.53;;
27383;SDS011;14851;51.166;4.760;2024-02-26T09:37:43;5.32;;;4.30;;
27383;SDS011;14851;51.166;4.760;2024-02-26T09:40:10;4.68;;;4.28;;
27383;SDS011;14851;51.166;4.760;2024-02-26T09:42:43;6.47;;;4.38;;
27383;SDS011;14851;51.166;4.760;2024-02-26T09:45:10;5.15;;;4.63;;
27383;SDS011;14851;51.166;4.760;2024-02-26T09:47:42;4.00;;;3.60;;
27383;SDS011;14851;51.166;4.760;2024-02-26T09:50:17;4.32;;;3.90;;
27383;SDS011;14851;51.166;4.760;2024-02-26T09:55:16;4.72;;;4.22;;
27383;SDS011;14851;51.166;4.760;2024-02-26T09:57:43;6.57;;;3.90;;
27383;SDS011;14851;51.166;4.760;2024-02-26T10:00:12;4.78;;;4.10;;
27383;SDS011;14851;51.166;4.760;2024-02-26T10:02:43;6.85;;;4.65;;
27383;SDS011;14851;51.166;4.760;2024-02-26T10:05:12;5.32;;;4.68;;
27383;SDS011;14851;51.166;4.760;2024-02-26T10:07:46;4.70;;;4.15;;
27383;SDS011;14851;51.166;4.760;2024-02-26T10:10:13;6.85;;;4.28;;
27383;SDS011;14851;51.166;4.760;2024-02-26T10:12:43;4.72;;;4.28;;
27383;SDS011;14851;51.166;4.760;2024-02-26T10:15:11;5.82;;;4.63;;
27383;SDS011;14851;51.166;4.760;2024-02-26T10:17:41;5.47;;;4.97;;
27383;SDS011;14851;51.166;4.760;2024-02-26T10:20:16;4.93;;;4.43;;
27383;SDS011;14851;51.166;4.760;2024-02-26T10:22:43;5.60;;;4.80;;
27383;SDS011;14851;51.166;4.760;2024-02-26T10:25:12;5.60;;;5.00;;
27383;SDS011;14851;51.166;4.760;2024-02-26T10:27:39;6.60;;;5.18;;
27383;SDS011;14851;51.166;4.760;2024-02-26T10:32:49;6.30;;;4.85;;
27383;SDS011;14851;51.166;4.760;2024-02-26T10:35:15;5.55;;;4.95;;
27383;SDS011;14851;51.166;4.760;2024-02-26T10:37:43;7.20;;;4.80;;
27383;SDS011;14851;51.166;4.760;2024-02-26T10:40:13;5.55;;;4.95;;
27383;SDS011;14851;51.166;4.760;2024-02-26T10:45:06;6.20;;;5.07;;
27383;SDS011;14851;51.166;4.760;2024-02-26T10:47:34;5.45;;;4.95;;
27383;SDS011;14851;51.166;4.760;2024-02-26T10:50:04;5.60;;;5.00;;
27383;SDS011;14851;51.166;4.760;2024-02-26T10:52:32;6.20;;;5.43;;
27383;SDS011;14851;51.166;4.760;2024-02-26T10:55:02;5.90;;;5.07;;
27383;SDS011;14851;51.166;4.760;2024-02-26T10:57:37;5.22;;;4.63;;
27383;SDS011;14851;51.166;4.760;2024-02-26T11:00:05;6.47;;;5.05;;
27383;SDS011;14851;51.166;4.760;2024-02-26T11:02:32;7.35;;;4.63;;
27383;SDS011;14851;51.166;4.760;2024-02-26T11:05:02;5.72;;;5.15;;
27383;SDS011;14851;51.166;4.760;2024-02-26T11:07:29;6.30;;;5.63;;
27383;SDS011;14851;51.166;4.760;2024-02-26T11:09:56;7.05;;;6.13;;
27383;SDS011;14851;51.166;4.760;2024-02-26T11:12:22;6.30;;;5.70;;
27383;SDS011;14851;51.166;4.760;2024-02-26T11:14:54;5.60;;;4.95;;
27383;SDS011;14851;51.166;4.760;2024-02-26T11:17:22;6.38;;;5.65;;
27383;SDS011;14851;51.166;4.760;2024-02-26T11:19:50;8.00;;;5.68;;
27383;SDS011;14851;51.166;4.760;2024-02-26T11:22:17;5.55;;;4.97;;
27383;SDS011;14851;51.166;4.760;2024-02-26T11:24:47;5.68;;;5.10;;
27383;SDS011;14851;51.166;4.760;2024-02-26T11:27:14;6.85;;;5.03;;
27383;SDS011;14851;51.166;4.760;2024-02-26T11:29:44;6.07;;;5.30;;
27383;SDS011;14851;51.166;4.760;2024-02-26T11:32:14;5.95;;;4.55;;
27383;SDS011;14851;51.166;4.760;2024-02-26T11:34:40;5.43;;;4.68;;
27383;SDS011;14851;51.166;4.760;2024-02-26T11:37:13;5.05;;;4.55;;
27383;SDS011;14851;51.166;4.760;2024-02-26T11:39:43;6.65;;;4.65;;
27383;SDS011;14851;51.166;4.760;2024-02-26T11:42:14;5.97;;;4.97;;
27383;SDS011;14851;51.166;4.760;2024-02-26T11:44:44;5.38;;;4.72;;
27383;SDS011;14851;51.166;4.760;2024-02-26T11:47:20;8.48;;;5.05;;
27383;SDS011;14851;51.166;4.760;2024-02-26T11:49:47;6.75;;;5.57;;
27383;SDS011;14851;51.166;4.760;2024-02-26T11:52:14;6.47;;;5.22;;
27383;SDS011;14851;51.166;4.760;2024-02-26T11:54:48;5.97;;;5.38;;
27383;SDS011;14851;51.166;4.760;2024-02-26T11:57:25;7.15;;;6.45;;
27383;SDS011;14851;51.166;4.760;2024-02-26T11:59:53;5.90;;;5.15;;
27383;SDS011;14851;51.166;4.760;2024-02-26T12:05:37;6.72;;;6.03;;
27383;SDS011;14851;51.166;4.760;2024-02-26T12:08:01;8.18;;;6.68;;
27383;SDS011;14851;51.166;4.760;2024-02-26T12:10:33;8.55;;;6.78;;
27383;SDS011;14851;51.166;4.760;2024-02-26T12:13:06;6.88;;;6.18;;
27383;SDS011;14851;51.166;4.760;2024-02-26T12:15:39;7.47;;;6.70;;
27383;SDS011;14851;51.166;4.760;2024-02-26T12:18:08;7.55;;;6.45;;
27383;SDS011;14851;51.166;4.760;2024-02-26T12:20:38;8.73;;;7.82;;
27383;SDS011;14851;51.166;4.760;2024-02-26T12:23:04;8.65;;;6.97;;
27383;SDS011;14851;51.166;4.760;2024-02-26T12:25:31;8.20;;;7.40;;
27383;SDS011;14851;51.166;4.760;2024-02-26T12:27:58;8.95;;;6.75;;
27383;SDS011;14851;51.166;4.760;2024-02-26T12:30:25;7.53;;;6.70;;
27383;SDS011;14851;51.166;4.760;2024-02-26T12:32:52;9.07;;;8.15;;
27383;SDS011;14851;51.166;4.760;2024-02-26T12:35:23;8.93;;;7.93;;
27383;SDS011;14851;51.166;4.760;2024-02-26T12:37:52;9.25;;;8.18;;
27383;SDS011;14851;51.166;4.760;2024-02-26T12:40:20;8.77;;;7.47;;
27383;SDS011;14851;51.166;4.760;2024-02-26T12:42:46;7.72;;;6.82;;
27383;SDS011;14851;51.166;4.760;2024-02-26T12:45:13;8.07;;;6.78;;
27383;SDS011;14851;51.166;4.760;2024-02-26T12:47:41;11.80;;;8.18;;
27383;SDS011;14851;51.166;4.760;2024-02-26T12:50:08;8.48;;;7.57;;
27383;SDS011;14851;51.166;4.760;2024-02-26T12:52:36;10.07;;;7.63;;
27383;SDS011;14851;51.166;4.760;2024-02-26T12:55:08;8.85;;;7.93;;
27383;SDS011;14851;51.166;4.760;2024-02-26T12:57:38;9.15;;;7.95;;
27383;SDS011;14851;51.166;4.760;2024-02-26T13:00:05;10.85;;;8.18;;
27383;SDS011;14851;51.166;4.760;2024-02-26T13:02:36;9.50;;;8.30;;
27383;SDS011;14851;51.166;4.760;2024-02-26T13:05:05;11.63;;;8.45;;
27383;SDS011;14851;51.166;4.760;2024-02-26T13:07:40;9.63;;;8.15;;
27383;SDS011;14851;51.166;4.760;2024-02-26T13:10:11;9.90;;;8.20;;
27383;SDS011;14851;51.166;4.760;2024-02-26T13:12:42;12.23;;;7.85;;
27383;SDS011;14851;51.166;4.760;2024-02-26T13:15:14;10.60;;;8.27;;
27383;SDS011;14851;51.166;4.760;2024-02-26T13:17:41;9.57;;;7.50;;
27383;SDS011;14851;51.166;4.760;2024-02-26T13:20:08;11.27;;;8.27;;
27383;SDS011;14851;51.166;4.760;2024-02-26T13:22:35;9.48;;;8.00;;
27383;SDS011;14851;51.166;4.760;2024-02-26T13:25:04;11.52;;;7.93;;
27383;SDS011;14851;51.166;4.760;2024-02-26T13:27:50;10.63;;;8.23;;
27383;SDS011;14851;51.166;4.760;2024-02-26T13:30:30;11.48;;;8.52;;
27383;SDS011;14851;51.166;4.760;2024-02-26T13:32:56;10.52;;;8.38;;
27383;SDS011;14851;51.166;4.760;2024-02-26T13:35:36;11.95;;;9.00;;
27383;SDS011;14851;51.166;4.760;2024-02-26T13:38:04;11.30;;;9.25;;
27383;SDS011;14851;51.166;4.760;2024-02-26T13:40:32;12.73;;;9.10;;
27383;SDS011;14851;51.166;4.760;2024-02-26T13:42:59;10.75;;;8.45;;
27383;SDS011;14851;51.166;4.760;2024-02-26T13:45:26;12.68;;;9.10;;
27383;SDS011;14851;51.166;4.760;2024-02-26T13:48:07;14.23;;;9.07;;
27383;SDS011;14851;51.166;4.760;2024-02-26T13:50:46;11.82;;;8.95;;
27383;SDS011;14851;51.166;4.760;2024-02-26T13:53:14;10.73;;;9.07;;
27383;SDS011;14851;51.166;4.760;2024-02-26T13:55:49;14.18;;;9.07;;
27383;SDS011;14851;51.166;4.760;2024-02-26T13:58:15;11.40;;;8.85;;
27383;SDS011;14851;51.166;4.760;2024-02-26T14:00:44;11.63;;;8.90;;
27383;SDS011;14851;51.166;4.760;2024-02-26T14:03:10;10.38;;;8.63;;
27383;SDS011;14851;51.166;4.760;2024-02-26T14:05:39;11.20;;;8.80;;
27383;SDS011;14851;51.166;4.760;2024-02-26T14:08:06;10.85;;;9.13;;
27383;SDS011;14851;51.166;4.760;2024-02-26T14:10:36;10.70;;;8.13;;
27383;SDS011;14851;51.166;4.760;2024-02-26T14:13:03;10.60;;;7.75;;
27383;SDS011;14851;51.166;4.760;2024-02-26T14:15:29;9.93;;;7.93;;
27383;SDS011;14851;51.166;4.760;2024-02-26T14:17:56;8.40;;;7.43;;
27383;SDS011;14851;51.166;4.760;2024-02-26T14:20:23;14.88;;;7.97;;
27383;SDS011;14851;51.166;4.760;2024-02-26T14:22:49;9.50;;;6.68;;
27383;SDS011;14851;51.166;4.760;2024-02-26T14:25:19;9.23;;;7.30;;
27383;SDS011;14851;51.166;4.760;2024-02-26T14:27:47;10.10;;;7.53;;
27383;SDS011;14851;51.166;4.760;2024-02-26T14:30:16;10.38;;;6.72;;
27383;SDS011;14851;51.166;4.760;2024-02-26T14:32:44;8.70;;;6.78;;
27383;SDS011;14851;51.166;4.760;2024-02-26T14:35:12;11.15;;;7.28;;
27383;SDS011;14851;51.166;4.760;2024-02-26T14:37:38;10.60;;;7.13;;
27383;SDS011;14851;51.166;4.760;2024-02-26T14:40:04;9.32;;;6.93;;
27383;SDS011;14851;51.166;4.760;2024-02-26T14:42:32;11.50;;;6.68;;
27383;SDS011;14851;51.166;4.760;2024-02-26T14:44:59;8.40;;;6.72;;
27383;SDS011;14851;51.166;4.760;2024-02-26T14:47:25;7.43;;;5.60;;
27383;SDS011;14851;51.166;4.760;2024-02-26T14:49:54;8.98;;;6.50;;
27383;SDS011;14851;51.166;4.760;2024-02-26T14:52:22;10.70;;;7.32;;
27383;SDS011;14851;51.166;4.760;2024-02-26T14:54:49;8.95;;;6.13;;
27383;SDS011;14851;51.166;4.760;2024-02-26T14:57:16;8.52;;;6.25;;
27383;SDS011;14851;51.166;4.760;2024-02-26T14:59:43;7.68;;;5.50;;
27383;SDS011;14851;51.166;4.760;2024-02-26T15:02:09;8.13;;;5.93;;
27383;SDS011;14851;51.166;4.760;2024-02-26T15:04:36;7.78;;;6.05;;